createdAt,value
2018-12-04T00:00:40.842Z,100.00
2018-12-04T00:05:52.063Z,100.00
2018-12-04T00:11:04.097Z,97.72
2018-12-04T00:16:15.270Z,98.81
2018-12-04T00:21:29.134Z,96.03
2018-12-04T00:26:39.779Z,96.40
2018-12-04T00:31:51.634Z,97.36
2018-12-04T00:37:02.285Z,96.15
2018-12-04T00:42:13.728Z,98.32
2018-12-04T00:47:24.882Z,98.03
2018-12-04T00:52:36.824Z,96.66
2018-12-04T00:57:49.186Z,98.03
2018-12-04T01:03:01.239Z,97.18
2018-12-04T01:08:13.422Z,97.79
2018-12-04T01:13:24.269Z,98.65
2018-12-04T01:18:37.008Z,98.93
2018-12-04T01:23:50.850Z,98.62
2018-12-04T01:29:03.082Z,99.70
2018-12-04T01:34:15.503Z,98.71
2018-12-04T01:39:27.762Z,98.82
2018-12-04T01:44:38.593Z,98.42
2018-12-04T01:49:50.854Z,98.91
2018-12-04T01:55:01.378Z,98.53
2018-12-04T02:00:13.773Z,99.24
2018-12-04T02:05:24.664Z,100.00
2018-12-04T02:10:37.684Z,99.44
2018-12-04T02:15:48.872Z,98.12
2018-12-04T02:21:00.961Z,98.14
2018-12-04T02:26:11.281Z,98.21
2018-12-04T02:31:26.046Z,98.88
2018-12-04T02:36:36.478Z,99.10
2018-12-04T02:41:50.657Z,99.11
2018-12-04T02:47:01.213Z,99.76
2018-12-04T02:52:15.336Z,100.00
2018-12-04T02:57:27.882Z,100.00
2018-12-04T03:02:40.815Z,99.84
2018-12-04T03:07:51.680Z,99.78
2018-12-04T03:13:03.378Z,98.99
2018-12-04T03:18:14.827Z,99.91
2018-12-04T03:23:25.528Z,100.00
2018-12-04T03:28:37.363Z,100.00
2018-12-04T03:33:48.174Z,100.00
2018-12-04T03:39:01.759Z,100.00
2018-12-04T03:44:14.896Z,100.00
2018-12-04T03:49:26.903Z,100.00
2018-12-04T03:54:38.017Z,100.00
2018-12-04T03:59:51.586Z,100.00
2018-12-04T04:05:02.853Z,100.00
2018-12-04T04:10:14.408Z,100.00
2018-12-04T04:15:25.143Z,100.00
2018-12-04T04:20:36.726Z,100.00
2018-12-04T04:25:47.840Z,100.00
2018-12-04T04:30:59.739Z,100.00
2018-12-04T04:36:11.057Z,100.00
2018-12-04T04:41:22.481Z,100.00
2018-12-04T04:46:33.738Z,100.00
2018-12-04T04:51:47.840Z,100.00
2018-12-04T04:56:58.945Z,100.00
2018-12-04T05:02:07.609Z,100.00
2018-12-04T05:07:18.413Z,100.00
2018-12-04T05:12:32.476Z,100.00
2018-12-04T05:17:43.201Z,100.00
2018-12-04T05:22:51.502Z,99.14
2018-12-04T05:28:02.090Z,99.72
2018-12-04T05:33:15.942Z,99.25
2018-12-04T05:38:28.090Z,98.61
2018-12-04T05:43:37.473Z,99.61
2018-12-04T05:48:49.704Z,98.27
2018-12-04T05:54:00.589Z,98.13
2018-12-04T05:56:30.000Z,97.37
2018-12-04T05:58:59.857Z,98.30
2018-12-04T06:04:10.696Z,98.22
2018-12-04T06:09:23.213Z,98.92
2018-12-04T06:14:34.190Z,98.74
2018-12-04T06:19:46.561Z,99.36
2018-12-04T06:24:57.480Z,100.00
2018-12-04T06:30:11.051Z,100.00
2018-12-04T06:35:22.500Z,100.00
2018-12-04T06:40:34.455Z,100.00
2018-12-04T06:45:45.452Z,100.00
2018-12-04T06:50:56.946Z,100.00
2018-12-04T06:56:07.421Z,100.00
2018-12-04T07:01:18.963Z,100.00
2018-12-04T07:06:29.841Z,100.00
2018-12-04T07:11:41.943Z,100.00
2018-12-04T07:16:52.839Z,100.00
2018-12-04T07:19:22.241Z,100.00
2018-12-04T07:24:33.365Z,100.00
2018-12-04T07:29:46.923Z,100.00
2018-12-04T07:34:57.595Z,100.00
2018-12-04T07:40:09.255Z,100.00
2018-12-04T07:45:21.957Z,100.00
2018-12-04T07:50:34.376Z,100.00
2018-12-04T07:55:46.094Z,100.00
2018-12-04T08:00:59.011Z,100.00
2018-12-04T08:06:11.449Z,99.66
2018-12-04T08:11:24.141Z,99.23
2018-12-04T08:16:35.901Z,98.00
2018-12-04T08:21:55.261Z,97.29
2018-12-04T08:27:09.828Z,96.59
2018-12-04T08:32:23.902Z,96.12
2018-12-04T08:37:35.273Z,93.95
2018-12-04T08:42:50.189Z,93.64
2018-12-04T08:48:05.395Z,91.32
2018-12-04T08:53:17.433Z,89.18
2018-12-04T08:58:32.005Z,86.82
2018-12-04T09:03:43.033Z,86.94
2018-12-04T09:09:09.274Z,87.18
2018-12-04T09:14:21.608Z,83.42
2018-12-04T09:19:35.713Z,79.56
2018-12-04T09:24:48.933Z,74.89
2018-12-04T09:30:01.298Z,75.50
2018-12-04T09:35:12.514Z,74.49
2018-12-04T09:40:24.775Z,74.36
2018-12-04T09:45:39.007Z,74.17
2018-12-04T09:50:53.163Z,72.43
2018-12-04T09:56:06.038Z,70.41
2018-12-04T10:01:19.344Z,68.10
2018-12-04T10:06:30.221Z,67.27
2018-12-04T10:11:42.156Z,67.01
2018-12-04T10:16:53.695Z,65.57
2018-12-04T10:22:06.406Z,65.90
2018-12-04T10:27:17.377Z,62.69
2018-12-04T10:32:29.313Z,61.33
2018-12-04T10:37:36.840Z,61.66
2018-12-04T10:42:50.847Z,64.08
2018-12-04T10:48:03.758Z,62.62
2018-12-04T10:53:15.807Z,60.67
2018-12-04T10:58:27.824Z,57.04
2018-12-04T11:03:46.719Z,58.01
2018-12-04T11:08:58.554Z,60.51
2018-12-04T11:14:09.553Z,63.10
2018-12-04T11:19:21.659Z,64.23
2018-12-04T11:24:32.474Z,64.28
2018-12-04T11:29:47.067Z,64.28
2018-12-04T11:34:59.641Z,59.99
2018-12-04T11:40:18.648Z,59.40
2018-12-04T11:45:29.899Z,57.79
2018-12-04T11:50:42.165Z,58.58
2018-12-04T11:55:53.147Z,58.41
2018-12-04T11:58:22.753Z,59.75
2018-12-04T12:03:33.826Z,57.72
2018-12-04T12:06:03.154Z,58.44
2018-12-04T12:11:15.087Z,58.27
2018-12-04T12:16:26.184Z,59.33
2018-12-04T12:21:37.072Z,61.94
2018-12-04T12:26:50.211Z,62.73
2018-12-04T12:29:19.623Z,63.85
2018-12-04T12:34:30.587Z,65.02
2018-12-04T12:39:42.634Z,66.05
2018-12-04T12:44:53.626Z,66.69
2018-12-04T12:50:08.173Z,67.84
2018-12-04T12:55:19.193Z,68.35
2018-12-04T13:00:31.214Z,66.10
2018-12-04T13:05:42.280Z,65.81
2018-12-04T13:10:54.160Z,63.38
2018-12-04T13:16:05.527Z,64.00
2018-12-04T13:21:17.542Z,64.49
2018-12-04T13:26:28.581Z,66.34
2018-12-04T13:31:40.541Z,66.46
2018-12-04T13:36:52.289Z,68.42
2018-12-04T13:39:21.684Z,68.81
2018-12-04T13:44:32.667Z,71.75
2018-12-04T13:49:44.781Z,71.20
2018-12-04T13:54:55.890Z,72.05
2018-12-04T14:00:08.949Z,72.07
2018-12-04T14:05:20.892Z,70.16
2018-12-04T14:10:33.081Z,69.37
2018-12-04T14:15:47.569Z,70.23
2018-12-04T14:21:00.571Z,70.32
2018-12-04T14:26:12.909Z,71.32
2018-12-04T14:31:25.029Z,71.34
2018-12-04T14:36:36.020Z,73.34
2018-12-04T14:41:54.556Z,75.07
2018-12-04T14:47:05.401Z,75.14
2018-12-04T14:49:34.858Z,76.58
2018-12-04T14:54:48.879Z,77.68
2018-12-04T15:00:01.103Z,77.46
2018-12-04T15:05:13.987Z,79.15
2018-12-04T15:10:26.058Z,80.12
2018-12-04T15:15:38.990Z,80.73
2018-12-04T15:20:51.792Z,82.25
2018-12-04T15:26:03.342Z,80.76
2018-12-04T15:31:15.610Z,82.97
2018-12-04T15:36:28.482Z,84.78
2018-12-04T15:41:40.499Z,84.27
2018-12-04T15:46:51.462Z,84.85
2018-12-04T15:52:03.541Z,86.61
2018-12-04T15:57:14.471Z,86.80
2018-12-04T16:02:26.707Z,87.89
2018-12-04T16:07:37.570Z,88.32
2018-12-04T16:12:54.493Z,89.26
2018-12-04T16:18:06.445Z,89.75
2018-12-04T16:23:22.955Z,89.83
2018-12-04T16:28:45.951Z,90.66
2018-12-04T16:34:00.679Z,90.18
2018-12-04T16:39:19.983Z,90.20
2018-12-04T16:44:31.346Z,90.77
2018-12-04T16:49:43.365Z,90.35
2018-12-04T16:54:57.278Z,89.69
2018-12-04T17:00:12.390Z,89.09
2018-12-04T17:05:21.951Z,89.34
2018-12-04T17:10:34.231Z,89.68
2018-12-04T17:15:48.854Z,89.57
2018-12-04T17:20:57.178Z,89.66
2018-12-04T17:26:08.905Z,89.42
2018-12-04T17:31:28.575Z,89.76
2018-12-04T17:36:44.003Z,90.15
2018-12-04T17:42:11.658Z,92.23
2018-12-04T17:47:37.050Z,92.34
2018-12-04T17:52:58.837Z,93.22
2018-12-04T17:58:27.912Z,93.62
2018-12-04T18:03:39.836Z,93.91
2018-12-04T18:08:58.394Z,94.04
2018-12-04T18:14:08.182Z,94.89
2018-12-04T18:19:23.213Z,94.74
2018-12-04T18:24:36.948Z,94.72
2018-12-04T18:29:52.178Z,94.98
2018-12-04T18:35:05.994Z,95.95
2018-12-04T18:40:20.485Z,95.50
2018-12-04T18:45:37.756Z,94.86
2018-12-04T18:50:50.530Z,94.95
2018-12-04T18:56:02.167Z,95.46
2018-12-04T19:01:14.548Z,95.82
2018-12-04T19:06:25.577Z,95.75
2018-12-04T19:08:55.109Z,95.21
2018-12-04T19:14:07.799Z,94.74
2018-12-04T19:19:19.841Z,94.39
2018-12-04T19:24:34.404Z,95.38
2018-12-04T19:29:46.483Z,94.34
2018-12-04T19:34:58.688Z,94.17
2018-12-04T19:40:13.112Z,93.70
2018-12-04T19:45:27.090Z,94.20
2018-12-04T20:15:16.794Z,94.06
2018-12-04T20:20:32.253Z,94.70
2018-12-04T20:25:46.445Z,95.23
2018-12-04T20:28:15.944Z,95.37
2018-12-04T20:33:27.090Z,95.08
2018-12-04T20:38:39.747Z,95.51
2018-12-04T20:43:50.757Z,95.55
2018-12-04T20:49:05.497Z,95.72
2018-12-04T20:54:16.724Z,95.96
2018-12-04T20:59:25.648Z,95.57
2018-12-04T21:04:40.727Z,96.60
2018-12-04T21:09:53.060Z,97.01
2018-12-04T21:15:04.417Z,97.04
2018-12-04T21:20:16.889Z,97.50
2018-12-04T21:25:28.057Z,97.59
2018-12-04T21:30:59.428Z,97.86
2018-12-04T21:36:43.321Z,97.87
2018-12-04T21:42:11.742Z,98.11
2018-12-04T21:47:40.457Z,98.93
2018-12-04T21:52:52.779Z,99.34
2018-12-04T21:58:04.754Z,99.11
2018-12-04T22:03:17.199Z,99.31
2018-12-04T22:08:31.192Z,98.78
2018-12-04T22:13:42.199Z,98.35
2018-12-04T22:18:50.856Z,98.69
2018-12-04T22:24:02.944Z,98.61
2018-12-04T22:29:15.014Z,98.85
2018-12-04T22:34:26.119Z,99.22
2018-12-04T22:39:34.974Z,98.84
2018-12-04T22:44:46.203Z,99.27
2018-12-04T22:50:03.795Z,99.35
2018-12-04T22:55:17.288Z,99.11
2018-12-04T23:00:40.114Z,99.70
2018-12-04T23:05:48.187Z,99.68
2018-12-04T23:11:00.368Z,99.76
2018-12-04T23:16:12.144Z,100.00
2018-12-04T23:21:24.208Z,99.72
2018-12-04T23:26:35.098Z,99.95
2018-12-04T23:31:47.221Z,99.76
2018-12-04T23:36:58.135Z,99.25
2018-12-04T23:42:12.027Z,99.63
2018-12-04T23:47:23.143Z,99.44
2018-12-04T23:52:35.689Z,100.00
2018-12-04T23:57:48.083Z,99.39
